sensor_id;sensor_type;location;lat;lon;timestamp;P1;durP1;ratioP1;P2;durP2;ratioP2
71836;SDS011;59686;51.716;7.016;2023-02-25T00:00:36;6.30;;;2.03;;
71836;SDS011;59686;51.716;7.016;2023-02-25T00:03:02;6.13;;;2.13;;
71836;SDS011;59686;51.716;7.016;2023-02-25T00:05:28;6.63;;;2.20;;
71836;SDS011;59686;51.716;7.016;2023-02-25T00:10:25;8.30;;;2.10;;
71836;SDS011;59686;51.716;7.016;2023-02-25T00:12:51;6.63;;;2.00;;
71836;SDS011;59686;51.716;7.016;2023-02-25T00:15:16;9.47;;;2.77;;
71836;SDS011;59686;51.716;7.016;2023-02-25T00:17:42;7.57;;;2.20;;
71836;SDS011;59686;51.716;7.016;2023-02-25T00:20:09;6.93;;;2.10;;
71836;SDS011;59686;51.716;7.016;2023-02-25T00:22:37;7.60;;;2.37;;
71836;SDS011;59686;51.716;7.016;2023-02-25T00:25:03;4.30;;;1.80;;
71836;SDS011;59686;51.716;7.016;2023-02-25T00:27:29;6.87;;;2.10;;
71836;SDS011;59686;51.716;7.016;2023-02-25T00:29:55;8.10;;;2.37;;
71836;SDS011;59686;51.716;7.016;2023-02-25T00:32:21;9.63;;;1.70;;
71836;SDS011;59686;51.716;7.016;2023-02-25T00:34:47;8.03;;;1.97;;
71836;SDS011;59686;51.716;7.016;2023-02-25T00:37:13;8.53;;;2.17;;
71836;SDS011;59686;51.716;7.016;2023-02-25T00:39:39;7.20;;;1.70;;
71836;SDS011;59686;51.716;7.016;2023-02-25T00:42:14;6.53;;;1.80;;
71836;SDS011;59686;51.716;7.016;2023-02-25T00:44:48;11.70;;;2.37;;
71836;SDS011;59686;51.716;7.016;2023-02-25T00:47:16;11.00;;;1.70;;
71836;SDS011;59686;51.716;7.016;2023-02-25T00:49:46;9.20;;;2.03;;
71836;SDS011;59686;51.716;7.016;2023-02-25T00:52:12;8.87;;;2.07;;
71836;SDS011;59686;51.716;7.016;2023-02-25T00:54:39;7.83;;;2.17;;
71836;SDS011;59686;51.716;7.016;2023-02-25T00:57:05;6.10;;;2.13;;
71836;SDS011;59686;51.716;7.016;2023-02-25T00:59:31;4.60;;;1.80;;
71836;SDS011;59686;51.716;7.016;2023-02-25T01:01:57;5.90;;;1.90;;
71836;SDS011;59686;51.716;7.016;2023-02-25T01:04:22;9.83;;;2.20;;
71836;SDS011;59686;51.716;7.016;2023-02-25T01:06:48;6.87;;;2.00;;
71836;SDS011;59686;51.716;7.016;2023-02-25T01:09:16;8.47;;;2.30;;
71836;SDS011;59686;51.716;7.016;2023-02-25T01:11:43;10.47;;;2.60;;
71836;SDS011;59686;51.716;7.016;2023-02-25T01:14:11;10.33;;;2.10;;
71836;SDS011;59686;51.716;7.016;2023-02-25T01:16:40;8.70;;;2.23;;
71836;SDS011;59686;51.716;7.016;2023-02-25T01:19:07;8.90;;;2.73;;
71836;SDS011;59686;51.716;7.016;2023-02-25T01:21:38;5.60;;;1.90;;
71836;SDS011;59686;51.716;7.016;2023-02-25T01:24:09;8.90;;;1.93;;
71836;SDS011;59686;51.716;7.016;2023-02-25T01:26:37;9.13;;;2.50;;
71836;SDS011;59686;51.716;7.016;2023-02-25T01:29:06;7.33;;;2.33;;
71836;SDS011;59686;51.716;7.016;2023-02-25T01:31:59;11.23;;;2.10;;
71836;SDS011;59686;51.716;7.016;2023-02-25T01:34:26;9.87;;;2.00;;
71836;SDS011;59686;51.716;7.016;2023-02-25T01:36:55;10.10;;;2.50;;
71836;SDS011;59686;51.716;7.016;2023-02-25T01:39:22;10.07;;;2.40;;
71836;SDS011;59686;51.716;7.016;2023-02-25T01:41:48;11.07;;;2.40;;
71836;SDS011;59686;51.716;7.016;2023-02-25T01:44:28;6.23;;;1.83;;
71836;SDS011;59686;51.716;7.016;2023-02-25T01:46:56;7.30;;;1.97;;
71836;SDS011;59686;51.716;7.016;2023-02-25T01:49:29;5.90;;;1.83;;
71836;SDS011;59686;51.716;7.016;2023-02-25T01:54:37;8.80;;;2.00;;
71836;SDS011;59686;51.716;7.016;2023-02-25T01:57:07;4.33;;;1.30;;
71836;SDS011;59686;51.716;7.016;2023-02-25T01:59:35;8.17;;;2.03;;
71836;SDS011;59686;51.716;7.016;2023-02-25T02:02:03;6.10;;;2.00;;
71836;SDS011;59686;51.716;7.016;2023-02-25T02:04:29;8.17;;;2.13;;
71836;SDS011;59686;51.716;7.016;2023-02-25T02:06:55;11.67;;;2.37;;
71836;SDS011;59686;51.716;7.016;2023-02-25T02:09:26;9.80;;;2.00;;
71836;SDS011;59686;51.716;7.016;2023-02-25T02:11:56;9.20;;;2.20;;
71836;SDS011;59686;51.716;7.016;2023-02-25T02:14:28;11.87;;;3.10;;
71836;SDS011;59686;51.716;7.016;2023-02-25T02:22:40;10.07;;;2.40;;
71836;SDS011;59686;51.716;7.016;2023-02-25T02:25:44;7.63;;;1.93;;
71836;SDS011;59686;51.716;7.016;2023-02-25T02:45:30;11.03;;;2.43;;
71836;SDS011;59686;51.716;7.016;2023-02-25T02:48:19;13.63;;;2.73;;
71836;SDS011;59686;51.716;7.016;2023-02-25T02:50:51;7.30;;;2.47;;
71836;SDS011;59686;51.716;7.016;2023-02-25T02:53:24;8.13;;;2.60;;
71836;SDS011;59686;51.716;7.016;2023-02-25T02:55:56;7.27;;;2.47;;
71836;SDS011;59686;51.716;7.016;2023-02-25T02:58:26;8.20;;;2.20;;
71836;SDS011;59686;51.716;7.016;2023-02-25T03:01:10;8.53;;;2.47;;
71836;SDS011;59686;51.716;7.016;2023-02-25T03:03:49;12.67;;;2.90;;
71836;SDS011;59686;51.716;7.016;2023-02-25T03:06:22;8.47;;;2.23;;
71836;SDS011;59686;51.716;7.016;2023-02-25T03:08:54;11.67;;;2.83;;
71836;SDS011;59686;51.716;7.016;2023-02-25T03:11:31;9.03;;;2.20;;
71836;SDS011;59686;51.716;7.016;2023-02-25T03:13:57;9.57;;;2.20;;
71836;SDS011;59686;51.716;7.016;2023-02-25T03:16:28;8.43;;;2.33;;
71836;SDS011;59686;51.716;7.016;2023-02-25T03:21:41;11.93;;;2.77;;
71836;SDS011;59686;51.716;7.016;2023-02-25T03:24:13;8.87;;;2.33;;
71836;SDS011;59686;51.716;7.016;2023-02-25T03:26:47;14.03;;;3.00;;
71836;SDS011;59686;51.716;7.016;2023-02-25T03:29:17;8.03;;;2.53;;
71836;SDS011;59686;51.716;7.016;2023-02-25T03:32:05;9.10;;;2.47;;
71836;SDS011;59686;51.716;7.016;2023-02-25T03:34:41;9.70;;;2.30;;
71836;SDS011;59686;51.716;7.016;2023-02-25T03:37:11;8.70;;;2.50;;
71836;SDS011;59686;51.716;7.016;2023-02-25T03:39:47;10.37;;;2.30;;
71836;SDS011;59686;51.716;7.016;2023-02-25T03:42:17;9.83;;;2.60;;
71836;SDS011;59686;51.716;7.016;2023-02-25T03:44:49;9.50;;;2.40;;
71836;SDS011;59686;51.716;7.016;2023-02-25T03:47:18;9.03;;;2.57;;
71836;SDS011;59686;51.716;7.016;2023-02-25T03:49:56;10.67;;;2.90;;
71836;SDS011;59686;51.716;7.016;2023-02-25T03:52:38;12.07;;;2.40;;
71836;SDS011;59686;51.716;7.016;2023-02-25T03:55:05;9.40;;;2.13;;
71836;SDS011;59686;51.716;7.016;2023-02-25T03:57:40;7.70;;;2.27;;
71836;SDS011;59686;51.716;7.016;2023-02-25T04:00:11;10.03;;;2.70;;
71836;SDS011;59686;51.716;7.016;2023-02-25T04:02:47;9.33;;;2.30;;
71836;SDS011;59686;51.716;7.016;2023-02-25T04:05:15;8.27;;;2.50;;
71836;SDS011;59686;51.716;7.016;2023-02-25T04:07:43;9.10;;;2.30;;
71836;SDS011;59686;51.716;7.016;2023-02-25T04:10:10;10.70;;;2.90;;
71836;SDS011;59686;51.716;7.016;2023-02-25T04:12:38;13.07;;;2.40;;
71836;SDS011;59686;51.716;7.016;2023-02-25T04:15:04;12.30;;;3.60;;
71836;SDS011;59686;51.716;7.016;2023-02-25T04:17:32;12.23;;;2.40;;
71836;SDS011;59686;51.716;7.016;2023-02-25T04:19:58;8.50;;;2.53;;
71836;SDS011;59686;51.716;7.016;2023-02-25T04:22:24;11.67;;;2.30;;
71836;SDS011;59686;51.716;7.016;2023-02-25T04:24:50;7.50;;;2.27;;
71836;SDS011;59686;51.716;7.016;2023-02-25T04:27:15;9.07;;;2.37;;
71836;SDS011;59686;51.716;7.016;2023-02-25T04:29:41;7.43;;;2.20;;
71836;SDS011;59686;51.716;7.016;2023-02-25T04:32:08;7.43;;;2.30;;
71836;SDS011;59686;51.716;7.016;2023-02-25T04:34:34;8.63;;;2.40;;
71836;SDS011;59686;51.716;7.016;2023-02-25T04:37:00;8.27;;;2.20;;
71836;SDS011;59686;51.716;7.016;2023-02-25T04:39:28;8.57;;;2.43;;
71836;SDS011;59686;51.716;7.016;2023-02-25T04:41:55;8.53;;;2.23;;
71836;SDS011;59686;51.716;7.016;2023-02-25T04:44:22;9.47;;;2.20;;
71836;SDS011;59686;51.716;7.016;2023-02-25T04:46:48;8.53;;;2.27;;
71836;SDS011;59686;51.716;7.016;2023-02-25T04:49:16;8.33;;;2.00;;
71836;SDS011;59686;51.716;7.016;2023-02-25T04:51:45;7.87;;;2.53;;
71836;SDS011;59686;51.716;7.016;2023-02-25T04:54:13;7.80;;;2.60;;
71836;SDS011;59686;51.716;7.016;2023-02-25T04:56:42;13.13;;;2.73;;
71836;SDS011;59686;51.716;7.016;2023-02-25T04:59:08;8.10;;;2.20;;
71836;SDS011;59686;51.716;7.016;2023-02-25T05:01:35;8.27;;;2.43;;
71836;SDS011;59686;51.716;7.016;2023-02-25T05:04:02;9.47;;;2.37;;
71836;SDS011;59686;51.716;7.016;2023-02-25T05:06:28;12.07;;;2.87;;
71836;SDS011;59686;51.716;7.016;2023-02-25T05:08:55;9.03;;;2.40;;
71836;SDS011;59686;51.716;7.016;2023-02-25T05:11:22;10.50;;;2.30;;
71836;SDS011;59686;51.716;7.016;2023-02-25T05:13:48;7.87;;;2.27;;
71836;SDS011;59686;51.716;7.016;2023-02-25T05:16:15;9.23;;;2.37;;
71836;SDS011;59686;51.716;7.016;2023-02-25T05:18:43;10.60;;;3.10;;
71836;SDS011;59686;51.716;7.016;2023-02-25T05:21:11;8.53;;;2.30;;
71836;SDS011;59686;51.716;7.016;2023-02-25T05:23:43;12.23;;;2.83;;
71836;SDS011;59686;51.716;7.016;2023-02-25T05:26:11;8.43;;;2.47;;
71836;SDS011;59686;51.716;7.016;2023-02-25T05:28:38;10.27;;;2.13;;
71836;SDS011;59686;51.716;7.016;2023-02-25T05:31:07;12.50;;;2.73;;
71836;SDS011;59686;51.716;7.016;2023-02-25T05:33:35;10.23;;;2.40;;
71836;SDS011;59686;51.716;7.016;2023-02-25T05:36:05;9.93;;;2.67;;
71836;SDS011;59686;51.716;7.016;2023-02-25T05:38:32;13.00;;;2.63;;
71836;SDS011;59686;51.716;7.016;2023-02-25T05:40:58;6.37;;;2.33;;
71836;SDS011;59686;51.716;7.016;2023-02-25T05:43:25;8.30;;;2.37;;
71836;SDS011;59686;51.716;7.016;2023-02-25T05:45:55;10.20;;;2.37;;
71836;SDS011;59686;51.716;7.016;2023-02-25T05:48:22;9.23;;;2.40;;
71836;SDS011;59686;51.716;7.016;2023-02-25T05:50:48;9.63;;;2.70;;
71836;SDS011;59686;51.716;7.016;2023-02-25T05:53:18;9.73;;;2.20;;
71836;SDS011;59686;51.716;7.016;2023-02-25T05:55:44;10.37;;;2.40;;
71836;SDS011;59686;51.716;7.016;2023-02-25T05:58:11;9.50;;;2.63;;
71836;SDS011;59686;51.716;7.016;2023-02-25T06:00:37;9.67;;;2.73;;
71836;SDS011;59686;51.716;7.016;2023-02-25T06:03:04;11.77;;;2.40;;
71836;SDS011;59686;51.716;7.016;2023-02-25T06:05:30;8.07;;;2.33;;
71836;SDS011;59686;51.716;7.016;2023-02-25T06:07:57;12.50;;;2.63;;
71836;SDS011;59686;51.716;7.016;2023-02-25T06:10:23;11.73;;;2.87;;
71836;SDS011;59686;51.716;7.016;2023-02-25T06:12:50;10.97;;;2.30;;
71836;SDS011;59686;51.716;7.016;2023-02-25T06:15:21;8.67;;;2.33;;
71836;SDS011;59686;51.716;7.016;2023-02-25T06:17:48;8.67;;;2.33;;
71836;SDS011;59686;51.716;7.016;2023-02-25T06:20:17;9.83;;;2.20;;
71836;SDS011;59686;51.716;7.016;2023-02-25T06:22:43;11.00;;;2.60;;
71836;SDS011;59686;51.716;7.016;2023-02-25T06:25:08;8.53;;;2.60;;
71836;SDS011;59686;51.716;7.016;2023-02-25T06:27:34;8.77;;;2.33;;
71836;SDS011;59686;51.716;7.016;2023-02-25T06:30:00;6.87;;;2.10;;
71836;SDS011;59686;51.716;7.016;2023-02-25T06:32:28;9.60;;;2.20;;
71836;SDS011;59686;51.716;7.016;2023-02-25T06:34:53;7.90;;;2.43;;
71836;SDS011;59686;51.716;7.016;2023-02-25T06:37:19;12.77;;;2.63;;
71836;SDS011;59686;51.716;7.016;2023-02-25T06:39:45;8.77;;;2.20;;
71836;SDS011;59686;51.716;7.016;2023-02-25T06:42:10;13.27;;;2.63;;
71836;SDS011;59686;51.716;7.016;2023-02-25T06:44:36;9.43;;;2.50;;
71836;SDS011;59686;51.716;7.016;2023-02-25T06:47:04;13.53;;;2.67;;
71836;SDS011;59686;51.716;7.016;2023-02-25T06:49:29;10.90;;;2.70;;
71836;SDS011;59686;51.716;7.016;2023-02-25T06:51:55;12.03;;;2.50;;
71836;SDS011;59686;51.716;7.016;2023-02-25T06:54:31;9.60;;;2.40;;
71836;SDS011;59686;51.716;7.016;2023-02-25T06:56:57;8.50;;;2.70;;
71836;SDS011;59686;51.716;7.016;2023-02-25T06:59:24;8.57;;;2.53;;
71836;SDS011;59686;51.716;7.016;2023-02-25T07:01:54;10.93;;;2.73;;
71836;SDS011;59686;51.716;7.016;2023-02-25T07:04:19;14.47;;;2.77;;
71836;SDS011;59686;51.716;7.016;2023-02-25T07:06:45;11.50;;;2.60;;
71836;SDS011;59686;51.716;7.016;2023-02-25T07:09:11;11.87;;;2.70;;
71836;SDS011;59686;51.716;7.016;2023-02-25T07:11:37;12.00;;;2.63;;
71836;SDS011;59686;51.716;7.016;2023-02-25T07:14:03;7.60;;;2.50;;
71836;SDS011;59686;51.716;7.016;2023-02-25T07:16:31;13.87;;;2.97;;
71836;SDS011;59686;51.716;7.016;2023-02-25T07:18:58;11.53;;;2.50;;
71836;SDS011;59686;51.716;7.016;2023-02-25T07:21:26;6.67;;;2.43;;
71836;SDS011;59686;51.716;7.016;2023-02-25T07:23:54;8.50;;;2.73;;
71836;SDS011;59686;51.716;7.016;2023-02-25T07:26:27;9.17;;;2.67;;
71836;SDS011;59686;51.716;7.016;2023-02-25T07:28:54;7.93;;;2.60;;
71836;SDS011;59686;51.716;7.016;2023-02-25T07:31:21;9.80;;;2.53;;
71836;SDS011;59686;51.716;7.016;2023-02-25T07:33:47;9.13;;;2.40;;
71836;SDS011;59686;51.716;7.016;2023-02-25T07:36:13;9.80;;;2.73;;
71836;SDS011;59686;51.716;7.016;2023-02-25T07:38:40;8.73;;;2.20;;
71836;SDS011;59686;51.716;7.016;2023-02-25T07:41:10;10.13;;;2.40;;
71836;SDS011;59686;51.716;7.016;2023-02-25T07:43:38;10.53;;;2.87;;
71836;SDS011;59686;51.716;7.016;2023-02-25T07:46:06;16.23;;;3.87;;
71836;SDS011;59686;51.716;7.016;2023-02-25T07:48:32;14.17;;;3.07;;
71836;SDS011;59686;51.716;7.016;2023-02-25T07:51:05;15.03;;;3.03;;
71836;SDS011;59686;51.716;7.016;2023-02-25T07:53:44;14.63;;;2.90;;
71836;SDS011;59686;51.716;7.016;2023-02-25T07:56:10;15.33;;;3.33;;
71836;SDS011;59686;51.716;7.016;2023-02-25T07:58:40;11.07;;;2.37;;
71836;SDS011;59686;51.716;7.016;2023-02-25T08:01:09;12.33;;;3.03;;
71836;SDS011;59686;51.716;7.016;2023-02-25T08:03:36;18.53;;;2.87;;
71836;SDS011;59686;51.716;7.016;2023-02-25T08:06:02;12.27;;;2.77;;
71836;SDS011;59686;51.716;7.016;2023-02-25T08:08:33;13.13;;;2.77;;
71836;SDS011;59686;51.716;7.016;2023-02-25T08:11:03;14.03;;;3.27;;
71836;SDS011;59686;51.716;7.016;2023-02-25T08:13:32;12.37;;;2.60;;
71836;SDS011;59686;51.716;7.016;2023-02-25T08:16:11;6.83;;;2.30;;
71836;SDS011;59686;51.716;7.016;2023-02-25T08:18:39;8.20;;;2.13;;
71836;SDS011;59686;51.716;7.016;2023-02-25T08:21:18;11.90;;;2.87;;
71836;SDS011;59686;51.716;7.016;2023-02-25T08:23:48;10.60;;;2.77;;
71836;SDS011;59686;51.716;7.016;2023-02-25T08:26:15;12.40;;;3.13;;
71836;SDS011;59686;51.716;7.016;2023-02-25T08:28:42;10.03;;;2.80;;
71836;SDS011;59686;51.716;7.016;2023-02-25T08:31:09;6.07;;;2.10;;
71836;SDS011;59686;51.716;7.016;2023-02-25T08:33:39;7.07;;;2.50;;
71836;SDS011;59686;51.716;7.016;2023-02-25T08:38:38;5.20;;;2.20;;
71836;SDS011;59686;51.716;7.016;2023-02-25T08:41:04;8.83;;;2.20;;
71836;SDS011;59686;51.716;7.016;2023-02-25T08:43:31;9.40;;;2.80;;
71836;SDS011;59686;51.716;7.016;2023-02-25T08:45:57;8.07;;;2.40;;
71836;SDS011;59686;51.716;7.016;2023-02-25T08:48:25;5.87;;;2.10;;
71836;SDS011;59686;51.716;7.016;2023-02-25T08:50:51;11.13;;;2.23;;
71836;SDS011;59686;51.716;7.016;2023-02-25T08:53:17;7.67;;;2.33;;
71836;SDS011;59686;51.716;7.016;2023-02-25T08:55:43;9.20;;;2.30;;
71836;SDS011;59686;51.716;7.016;2023-02-25T08:58:11;8.50;;;2.00;;
71836;SDS011;59686;51.716;7.016;2023-02-25T09:00:36;7.00;;;2.30;;
71836;SDS011;59686;51.716;7.016;2023-02-25T09:03:02;7.47;;;2.17;;
71836;SDS011;59686;51.716;7.016;2023-02-25T09:05:31;5.77;;;1.70;;
71836;SDS011;59686;51.716;7.016;2023-02-25T09:07:57;6.83;;;1.83;;
71836;SDS011;59686;51.716;7.016;2023-02-25T09:10:23;4.33;;;1.90;;
71836;SDS011;59686;51.716;7.016;2023-02-25T09:12:49;5.37;;;1.80;;
71836;SDS011;59686;51.716;7.016;2023-02-25T09:15:14;4.80;;;1.70;;
71836;SDS011;59686;51.716;7.016;2023-02-25T09:17:40;5.13;;;1.70;;
71836;SDS011;59686;51.716;7.016;2023-02-25T09:20:06;7.20;;;1.33;;
71836;SDS011;59686;51.716;7.016;2023-02-25T09:22:35;2.80;;;1.57;;
71836;SDS011;59686;51.716;7.016;2023-02-25T09:25:04;7.97;;;1.70;;
71836;SDS011;59686;51.716;7.016;2023-02-25T09:27:30;6.50;;;1.73;;
71836;SDS011;59686;51.716;7.016;2023-02-25T09:29:57;4.40;;;1.40;;
71836;SDS011;59686;51.716;7.016;2023-02-25T09:34:59;2.10;;;1.10;;
71836;SDS011;59686;51.716;7.016;2023-02-25T09:37:37;5.23;;;1.43;;
71836;SDS011;59686;51.716;7.016;2023-02-25T09:40:04;5.50;;;1.37;;
71836;SDS011;59686;51.716;7.016;2023-02-25T09:45:30;5.17;;;1.63;;
71836;SDS011;59686;51.716;7.016;2023-02-25T09:47:59;5.93;;;1.60;;
71836;SDS011;59686;51.716;7.016;2023-02-25T09:53:09;3.53;;;1.63;;
71836;SDS011;59686;51.716;7.016;2023-02-25T09:55:50;1.70;;;1.40;;
71836;SDS011;59686;51.716;7.016;2023-02-25T10:01:05;4.40;;;1.53;;
71836;SDS011;59686;51.716;7.016;2023-02-25T10:06:21;2.50;;;1.30;;
71836;SDS011;59686;51.716;7.016;2023-02-25T10:20:40;4.50;;;1.93;;
71836;SDS011;59686;51.716;7.016;2023-02-25T10:26:01;2.67;;;1.50;;
71836;SDS011;59686;51.716;7.016;2023-02-25T10:28:35;3.30;;;1.77;;
71836;SDS011;59686;51.716;7.016;2023-02-25T10:31:08;4.30;;;1.50;;
71836;SDS011;59686;51.716;7.016;2023-02-25T10:33:41;4.70;;;1.60;;
71836;SDS011;59686;51.716;7.016;2023-02-25T10:36:17;4.07;;;1.50;;
71836;SDS011;59686;51.716;7.016;2023-02-25T10:38:50;3.33;;;1.53;;
71836;SDS011;59686;51.716;7.016;2023-02-25T10:41:19;3.00;;;1.60;;
71836;SDS011;59686;51.716;7.016;2023-02-25T10:43:46;2.60;;;1.50;;
71836;SDS011;59686;51.716;7.016;2023-02-25T10:46:19;3.63;;;1.43;;
71836;SDS011;59686;51.716;7.016;2023-02-25T10:48:55;3.60;;;1.53;;
71836;SDS011;59686;51.716;7.016;2023-02-25T10:51:26;3.17;;;1.57;;
71836;SDS011;59686;51.716;7.016;2023-02-25T10:56:22;5.20;;;1.60;;
71836;SDS011;59686;51.716;7.016;2023-02-25T10:59:06;2.70;;;1.50;;
71836;SDS011;59686;51.716;7.016;2023-02-25T11:01:53;2.13;;;1.30;;
71836;SDS011;59686;51.716;7.016;2023-02-25T11:04:22;4.70;;;1.87;;
71836;SDS011;59686;51.716;7.016;2023-02-25T11:07:00;3.17;;;1.43;;
71836;SDS011;59686;51.716;7.016;2023-02-25T11:09:29;3.20;;;1.40;;
71836;SDS011;59686;51.716;7.016;2023-02-25T11:12:00;1.90;;;1.20;;
71836;SDS011;59686;51.716;7.016;2023-02-25T11:14:43;5.03;;;1.60;;
71836;SDS011;59686;51.716;7.016;2023-02-25T11:19:38;4.37;;;1.43;;
71836;SDS011;59686;51.716;7.016;2023-02-25T11:22:16;3.50;;;1.57;;
71836;SDS011;59686;51.716;7.016;2023-02-25T11:24:57;4.23;;;1.80;;
71836;SDS011;59686;51.716;7.016;2023-02-25T11:27:32;2.50;;;1.20;;
71836;SDS011;59686;51.716;7.016;2023-02-25T11:32:41;3.37;;;1.40;;
71836;SDS011;59686;51.716;7.016;2023-02-25T11:35:16;4.50;;;1.60;;
71836;SDS011;59686;51.716;7.016;2023-02-25T11:37:44;4.00;;;1.60;;
71836;SDS011;59686;51.716;7.016;2023-02-25T11:40:21;4.40;;;1.57;;
71836;SDS011;59686;51.716;7.016;2023-02-25T11:45:27;4.37;;;1.47;;
71836;SDS011;59686;51.716;7.016;2023-02-25T11:47:55;5.33;;;1.40;;
71836;SDS011;59686;51.716;7.016;2023-02-25T11:50:26;3.47;;;1.70;;
71836;SDS011;59686;51.716;7.016;2023-02-25T11:53:21;4.13;;;1.60;;
71836;SDS011;59686;51.716;7.016;2023-02-25T11:56:08;4.00;;;1.80;;
71836;SDS011;59686;51.716;7.016;2023-02-25T12:04:33;3.67;;;1.60;;
71836;SDS011;59686;51.716;7.016;2023-02-25T12:07:24;6.37;;;1.90;;
71836;SDS011;59686;51.716;7.016;2023-02-25T12:10:16;7.40;;;2.40;;
71836;SDS011;59686;51.716;7.016;2023-02-25T12:15:58;4.43;;;1.60;;
71836;SDS011;59686;51.716;7.016;2023-02-25T12:30:14;3.77;;;1.53;;
71836;SDS011;59686;51.716;7.016;2023-02-25T12:46:37;7.83;;;1.80;;
71836;SDS011;59686;51.716;7.016;2023-02-25T12:49:34;5.23;;;1.60;;
71836;SDS011;59686;51.716;7.016;2023-02-25T12:52:23;4.47;;;1.40;;
71836;SDS011;59686;51.716;7.016;2023-02-25T12:55:14;5.47;;;1.63;;
71836;SDS011;59686;51.716;7.016;2023-02-25T12:57:58;4.20;;;1.33;;
71836;SDS011;59686;51.716;7.016;2023-02-25T13:06:15;3.83;;;1.30;;
71836;SDS011;59686;51.716;7.016;2023-02-25T13:14:12;5.13;;;1.50;;
71836;SDS011;59686;51.716;7.016;2023-02-25T13:17:01;4.07;;;1.50;;
71836;SDS011;59686;51.716;7.016;2023-02-25T13:28:33;3.67;;;1.50;;
71836;SDS011;59686;51.716;7.016;2023-02-25T13:34:18;5.27;;;1.50;;
71836;SDS011;59686;51.716;7.016;2023-02-25T13:40:00;4.00;;;1.63;;
71836;SDS011;59686;51.716;7.016;2023-02-25T13:51:36;2.90;;;1.53;;
71836;SDS011;59686;51.716;7.016;2023-02-25T13:54:25;5.67;;;1.90;;
71836;SDS011;59686;51.716;7.016;2023-02-25T13:57:23;3.33;;;1.17;;
71836;SDS011;59686;51.716;7.016;2023-02-25T14:14:25;3.43;;;1.30;;
71836;SDS011;59686;51.716;7.016;2023-02-25T14:17:10;3.93;;;1.30;;
71836;SDS011;59686;51.716;7.016;2023-02-25T14:25:49;4.53;;;1.30;;
71836;SDS011;59686;51.716;7.016;2023-02-25T14:34:15;3.83;;;1.00;;
71836;SDS011;59686;51.716;7.016;2023-02-25T14:42:22;5.57;;;1.10;;
71836;SDS011;59686;51.716;7.016;2023-02-25T14:50:26;8.03;;;1.63;;
71836;SDS011;59686;51.716;7.016;2023-02-25T14:58:28;4.73;;;1.20;;
71836;SDS011;59686;51.716;7.016;2023-02-25T15:01:36;5.53;;;1.30;;
71836;SDS011;59686;51.716;7.016;2023-02-25T15:04:16;7.07;;;1.50;;
71836;SDS011;59686;51.716;7.016;2023-02-25T15:15:15;5.50;;;1.60;;
71836;SDS011;59686;51.716;7.016;2023-02-25T15:20:32;4.53;;;1.60;;
71836;SDS011;59686;51.716;7.016;2023-02-25T15:23:03;6.97;;;1.47;;
71836;SDS011;59686;51.716;7.016;2023-02-25T15:33:26;2.60;;;1.50;;
71836;SDS011;59686;51.716;7.016;2023-02-25T15:35:59;3.80;;;1.30;;
71836;SDS011;59686;51.716;7.016;2023-02-25T15:38:49;5.30;;;1.50;;
71836;SDS011;59686;51.716;7.016;2023-02-25T15:43:52;3.57;;;1.47;;
71836;SDS011;59686;51.716;7.016;2023-02-25T15:49:32;4.13;;;1.50;;
71836;SDS011;59686;51.716;7.016;2023-02-25T15:51:49;4.37;;;1.80;;
71836;SDS011;59686;51.716;7.016;2023-02-25T15:54:44;6.53;;;1.80;;
71836;SDS011;59686;51.716;7.016;2023-02-25T15:59:42;6.63;;;2.00;;
71836;SDS011;59686;51.716;7.016;2023-02-25T16:07:37;4.60;;;1.93;;
71836;SDS011;59686;51.716;7.016;2023-02-25T16:13:16;3.30;;;1.80;;
71836;SDS011;59686;51.716;7.016;2023-02-25T16:16:05;3.27;;;1.70;;
71836;SDS011;59686;51.716;7.016;2023-02-25T16:18:35;4.77;;;1.70;;
71836;SDS011;59686;51.716;7.016;2023-02-25T16:24:10;3.27;;;1.63;;
71836;SDS011;59686;51.716;7.016;2023-02-25T16:29:19;5.93;;;1.30;;
71836;SDS011;59686;51.716;7.016;2023-02-25T16:39:25;3.60;;;1.60;;
71836;SDS011;59686;51.716;7.016;2023-02-25T16:41:53;5.77;;;1.50;;
71836;SDS011;59686;51.716;7.016;2023-02-25T16:44:20;4.53;;;1.40;;
71836;SDS011;59686;51.716;7.016;2023-02-25T16:46:51;5.63;;;1.70;;
71836;SDS011;59686;51.716;7.016;2023-02-25T16:49:19;4.00;;;1.93;;
71836;SDS011;59686;51.716;7.016;2023-02-25T16:51:52;3.47;;;1.53;;
71836;SDS011;59686;51.716;7.016;2023-02-25T16:54:23;3.97;;;1.77;;
71836;SDS011;59686;51.716;7.016;2023-02-25T16:56:59;3.53;;;1.83;;
71836;SDS011;59686;51.716;7.016;2023-02-25T16:59:30;4.10;;;1.77;;
71836;SDS011;59686;51.716;7.016;2023-02-25T17:02:21;3.33;;;1.60;;
71836;SDS011;59686;51.716;7.016;2023-02-25T17:04:52;3.93;;;1.77;;
71836;SDS011;59686;51.716;7.016;2023-02-25T17:07:24;5.03;;;1.90;;
71836;SDS011;59686;51.716;7.016;2023-02-25T17:09:55;4.70;;;2.20;;
71836;SDS011;59686;51.716;7.016;2023-02-25T17:15:26;5.23;;;2.10;;
71836;SDS011;59686;51.716;7.016;2023-02-25T17:20:45;5.20;;;1.90;;
71836;SDS011;59686;51.716;7.016;2023-02-25T17:23:12;7.83;;;2.50;;
71836;SDS011;59686;51.716;7.016;2023-02-25T17:25:42;4.33;;;2.00;;
71836;SDS011;59686;51.716;7.016;2023-02-25T17:28:17;6.87;;;2.13;;
71836;SDS011;59686;51.716;7.016;2023-02-25T17:30:52;4.23;;;2.33;;
71836;SDS011;59686;51.716;7.016;2023-02-25T17:33:32;3.70;;;1.70;;
71836;SDS011;59686;51.716;7.016;2023-02-25T17:36:00;4.20;;;1.90;;
71836;SDS011;59686;51.716;7.016;2023-02-25T17:38:35;5.37;;;2.20;;
71836;SDS011;59686;51.716;7.016;2023-02-25T17:41:02;5.80;;;1.87;;
71836;SDS011;59686;51.716;7.016;2023-02-25T17:43:35;5.37;;;1.97;;
71836;SDS011;59686;51.716;7.016;2023-02-25T17:46:12;4.60;;;1.90;;
71836;SDS011;59686;51.716;7.016;2023-02-25T17:48:38;3.60;;;1.93;;
71836;SDS011;59686;51.716;7.016;2023-02-25T17:51:07;5.30;;;1.97;;
71836;SDS011;59686;51.716;7.016;2023-02-25T17:53:53;4.40;;;1.97;;
71836;SDS011;59686;51.716;7.016;2023-02-25T17:56:23;5.93;;;1.77;;
71836;SDS011;59686;51.716;7.016;2023-02-25T18:01:31;5.20;;;2.20;;
71836;SDS011;59686;51.716;7.016;2023-02-25T18:04:24;6.07;;;2.37;;
71836;SDS011;59686;51.716;7.016;2023-02-25T18:07:18;5.60;;;2.40;;
71836;SDS011;59686;51.716;7.016;2023-02-25T18:09:46;3.77;;;2.27;;
71836;SDS011;59686;51.716;7.016;2023-02-25T18:15:19;3.57;;;2.20;;
71836;SDS011;59686;51.716;7.016;2023-02-25T18:17:47;4.80;;;2.50;;
71836;SDS011;59686;51.716;7.016;2023-02-25T18:22:55;5.80;;;2.67;;
71836;SDS011;59686;51.716;7.016;2023-02-25T18:28:04;6.27;;;3.07;;
71836;SDS011;59686;51.716;7.016;2023-02-25T18:30:50;5.80;;;3.23;;
71836;SDS011;59686;51.716;7.016;2023-02-25T18:33:16;5.50;;;3.03;;
71836;SDS011;59686;51.716;7.016;2023-02-25T18:35:43;7.27;;;3.77;;
71836;SDS011;59686;51.716;7.016;2023-02-25T18:38:18;4.57;;;3.20;;
71836;SDS011;59686;51.716;7.016;2023-02-25T18:40:46;5.60;;;3.17;;
71836;SDS011;59686;51.716;7.016;2023-02-25T18:43:14;4.70;;;3.03;;
71836;SDS011;59686;51.716;7.016;2023-02-25T18:45:44;6.63;;;3.27;;
71836;SDS011;59686;51.716;7.016;2023-02-25T18:48:11;7.63;;;3.77;;
71836;SDS011;59686;51.716;7.016;2023-02-25T18:50:37;5.27;;;3.20;;
71836;SDS011;59686;51.716;7.016;2023-02-25T18:53:18;5.33;;;2.93;;
71836;SDS011;59686;51.716;7.016;2023-02-25T18:55:47;4.80;;;2.90;;
71836;SDS011;59686;51.716;7.016;2023-02-25T18:58:15;6.17;;;3.50;;
71836;SDS011;59686;51.716;7.016;2023-02-25T19:00:43;6.90;;;2.93;;
71836;SDS011;59686;51.716;7.016;2023-02-25T19:03:16;3.80;;;2.70;;
71836;SDS011;59686;51.716;7.016;2023-02-25T19:05:46;5.63;;;3.23;;
71836;SDS011;59686;51.716;7.016;2023-02-25T19:08:13;5.60;;;3.00;;
71836;SDS011;59686;51.716;7.016;2023-02-25T19:10:51;5.27;;;2.83;;
71836;SDS011;59686;51.716;7.016;2023-02-25T19:13:19;7.30;;;3.20;;
71836;SDS011;59686;51.716;7.016;2023-02-25T19:15:50;5.83;;;3.10;;
71836;SDS011;59686;51.716;7.016;2023-02-25T19:18:15;7.40;;;2.90;;